createdAt,value
2022-08-10T00:01:54.028Z,1.95
2022-08-10T00:04:22.947Z,1.77
2022-08-10T00:06:53.334Z,1.38
2022-08-10T00:09:20.618Z,1.98
2022-08-10T00:11:47.163Z,1.80
2022-08-10T00:14:13.638Z,1.77
2022-08-10T00:16:40.165Z,1.92
2022-08-10T00:19:06.624Z,1.50
2022-08-10T00:21:33.145Z,1.83
2022-08-10T00:23:59.571Z,1.70
2022-08-10T00:26:25.990Z,1.45
2022-08-10T00:28:52.576Z,2.10
2022-08-10T00:31:19.050Z,1.70
2022-08-10T00:33:45.488Z,1.95
2022-08-10T00:36:12.162Z,1.88
2022-08-10T00:38:38.620Z,1.88
2022-08-10T00:41:05.305Z,1.67
2022-08-10T00:43:31.796Z,1.75
2022-08-10T00:45:58.823Z,1.90
2022-08-10T00:48:30.714Z,2.28
2022-08-10T00:51:00.197Z,1.90
2022-08-10T00:53:30.079Z,2.03
2022-08-10T00:56:41.639Z,1.70
2022-08-10T00:58:44.349Z,1.90
2022-08-10T01:01:11.638Z,2.08
2022-08-10T01:04:39.932Z,1.90
2022-08-10T01:07:12.875Z,2.08
2022-08-10T01:10:07.110Z,1.83
2022-08-10T01:12:41.563Z,1.80
2022-08-10T01:15:29.345Z,2.40
2022-08-10T01:18:04.593Z,2.08
2022-08-10T01:20:49.147Z,2.17
2022-08-10T01:23:40.644Z,2.40
2022-08-10T01:26:44.952Z,1.92
2022-08-10T01:29:37.009Z,2.15
2022-08-10T01:32:07.295Z,2.33
2022-08-10T01:35:05.960Z,2.30
2022-08-10T01:40:04.510Z,2.00
2022-08-10T01:42:36.372Z,2.10
2022-08-10T01:45:07.291Z,2.25
2022-08-10T01:47:56.375Z,2.28
2022-08-10T01:50:32.670Z,2.53
2022-08-10T01:53:09.298Z,1.83
2022-08-10T01:55:38.207Z,2.20
2022-08-10T01:58:07.552Z,2.00
2022-08-10T02:00:37.751Z,2.22
2022-08-10T02:03:07.539Z,1.98
2022-08-10T02:05:36.606Z,2.35
2022-08-10T02:08:06.064Z,2.22
2022-08-10T02:10:34.854Z,2.80
2022-08-10T02:13:02.915Z,2.40
2022-08-10T02:15:33.488Z,2.15
2022-08-10T02:18:03.080Z,2.08
2022-08-10T02:20:43.810Z,2.10
2022-08-10T02:23:22.470Z,2.50
2022-08-10T02:25:51.563Z,2.63
2022-08-10T02:28:29.954Z,2.15
2022-08-10T02:31:06.659Z,2.20
2022-08-10T02:33:37.291Z,2.42
2022-08-10T02:36:07.129Z,2.30
2022-08-10T02:38:59.000Z,2.85
2022-08-10T02:45:01.996Z,2.67
2022-08-10T02:45:24.427Z,2.70
2022-08-10T02:48:03.084Z,2.92
2022-08-10T02:50:35.503Z,2.58
2022-08-10T02:53:54.900Z,3.00
2022-08-10T02:56:32.751Z,2.88
2022-08-10T02:59:22.851Z,2.88
2022-08-10T03:01:52.775Z,2.97
2022-08-10T03:04:55.743Z,2.80
2022-08-10T03:07:42.793Z,2.95
2022-08-10T03:10:13.183Z,2.75
2022-08-10T03:12:43.210Z,3.10
2022-08-10T03:15:15.548Z,2.70
2022-08-10T03:17:57.794Z,2.92
2022-08-10T03:20:46.345Z,3.13
2022-08-10T03:23:23.319Z,3.08
2022-08-10T03:25:54.033Z,3.05
2022-08-10T03:28:26.797Z,3.22
2022-08-10T03:30:54.586Z,3.40
2022-08-10T03:33:22.641Z,3.35
2022-08-10T03:36:42.778Z,3.10
2022-08-10T03:38:37.214Z,3.20
2022-08-10T03:41:06.151Z,2.92
2022-08-10T03:43:34.085Z,2.90
2022-08-10T03:46:04.721Z,2.92
2022-08-10T03:48:48.750Z,2.70
2022-08-10T03:51:17.450Z,2.95
2022-08-10T03:54:05.459Z,2.90
2022-08-10T03:56:33.030Z,2.67
2022-08-10T03:59:01.213Z,3.20
2022-08-10T04:02:42.001Z,2.58
2022-08-10T04:04:20.997Z,2.58
2022-08-10T04:06:54.522Z,3.53
2022-08-10T04:09:22.815Z,2.53
2022-08-10T04:11:49.618Z,2.47
2022-08-10T04:14:44.950Z,3.10
2022-08-10T04:17:02.751Z,2.80
2022-08-10T04:19:34.346Z,2.88
2022-08-10T04:22:08.661Z,2.75
2022-08-10T04:24:37.983Z,2.67
2022-08-10T04:27:04.742Z,2.80
2022-08-10T04:29:31.224Z,2.50
2022-08-10T04:31:57.659Z,2.60
2022-08-10T04:34:26.949Z,3.03
2022-08-10T04:36:57.132Z,2.75
2022-08-10T04:39:24.029Z,2.90
2022-08-10T04:41:50.809Z,2.67
2022-08-10T04:44:17.239Z,2.75
2022-08-10T04:46:57.883Z,3.05
2022-08-10T04:49:53.898Z,3.00
2022-08-10T04:52:13.396Z,3.08
2022-08-10T04:54:39.957Z,3.13
2022-08-10T04:57:06.550Z,3.33
2022-08-10T04:59:33.236Z,2.92
2022-08-10T05:02:22.567Z,2.90
2022-08-10T05:10:03.881Z,2.92
2022-08-10T05:12:35.991Z,2.90
2022-08-10T05:15:05.179Z,3.20
2022-08-10T05:17:31.635Z,3.53
2022-08-10T05:20:04.201Z,3.17
2022-08-10T05:22:37.217Z,3.22
2022-08-10T05:25:06.001Z,3.13
2022-08-10T05:27:33.583Z,2.83
2022-08-10T05:30:01.340Z,2.60
2022-08-10T05:32:29.809Z,2.72
2022-08-10T05:34:56.255Z,2.88
2022-08-10T05:38:12.262Z,2.80
2022-08-10T05:40:10.970Z,2.78
2022-08-10T05:42:38.138Z,3.03
2022-08-10T05:45:05.004Z,2.85
2022-08-10T05:48:57.921Z,2.75
2022-08-10T05:50:22.467Z,3.00
2022-08-10T05:52:49.415Z,2.83
2022-08-10T05:55:17.354Z,2.63
2022-08-10T05:57:45.319Z,2.80
2022-08-10T06:00:39.747Z,2.53
2022-08-10T06:03:04.563Z,2.72
2022-08-10T06:05:34.289Z,2.75
2022-08-10T06:08:06.075Z,2.83
2022-08-10T06:10:35.722Z,2.53
2022-08-10T06:13:30.280Z,2.72
2022-08-10T06:16:00.633Z,2.50
2022-08-10T06:18:27.851Z,2.33
2022-08-10T06:20:55.103Z,2.60
2022-08-10T06:23:23.225Z,2.22
2022-08-10T06:26:09.589Z,2.80
2022-08-10T06:28:40.003Z,2.70
2022-08-10T06:31:07.999Z,2.45
2022-08-10T06:33:37.410Z,2.25
2022-08-10T06:38:03.267Z,2.17
2022-08-10T06:40:35.536Z,2.20
2022-08-10T06:43:06.530Z,2.17
2022-08-10T06:46:07.895Z,2.20
2022-08-10T06:48:46.997Z,2.72
2022-08-10T06:51:18.102Z,2.03
2022-08-10T06:53:52.915Z,2.22
2022-08-10T06:56:37.564Z,2.17
2022-08-10T06:59:26.053Z,2.45
2022-08-10T07:02:05.544Z,2.50
2022-08-10T07:04:45.710Z,2.40
2022-08-10T07:07:18.330Z,2.20
2022-08-10T07:09:45.840Z,2.30
2022-08-10T07:12:14.774Z,2.63
2022-08-10T07:14:44.582Z,2.30
2022-08-10T07:17:15.140Z,2.13
2022-08-10T07:19:50.493Z,1.90
2022-08-10T07:23:01.821Z,1.90
2022-08-10T07:25:09.314Z,1.73
2022-08-10T07:28:00.735Z,1.90
2022-08-10T07:30:28.343Z,1.90
2022-08-10T07:32:56.065Z,2.15
2022-08-10T07:35:24.153Z,2.28
2022-08-10T07:37:52.795Z,1.90
2022-08-10T07:40:21.174Z,2.13
2022-08-10T07:42:51.099Z,1.80
2022-08-10T07:45:17.827Z,1.50
2022-08-10T07:48:03.742Z,1.90
2022-08-10T07:50:36.267Z,1.65
2022-08-10T07:53:04.422Z,1.80
2022-08-10T07:56:03.837Z,2.13
2022-08-10T07:58:22.260Z,1.80
2022-08-10T08:00:52.105Z,1.65
2022-08-10T08:03:24.937Z,1.83
2022-08-10T08:06:03.051Z,1.80
2022-08-10T08:08:33.659Z,1.75
2022-08-10T08:11:01.517Z,1.90
2022-08-10T08:13:29.505Z,1.60
2022-08-10T08:16:17.532Z,1.73
2022-08-10T08:19:03.858Z,1.77
2022-08-10T08:24:07.377Z,1.75
2022-08-10T08:24:32.479Z,1.70
2022-08-10T08:27:02.993Z,1.58
2022-08-10T08:29:33.157Z,1.67
2022-08-10T08:32:03.394Z,1.60
2022-08-10T08:34:36.938Z,1.80
2022-08-10T08:37:04.599Z,1.67
2022-08-10T08:39:36.049Z,1.40
2022-08-10T08:42:53.783Z,1.70
2022-08-10T08:48:11.342Z,1.63
2022-08-10T08:52:06.368Z,1.30
2022-08-10T08:54:23.674Z,1.20
2022-08-10T08:56:58.530Z,1.45
2022-08-10T08:59:37.650Z,1.30
2022-08-10T09:02:22.228Z,1.17
2022-08-10T09:04:54.764Z,1.27
2022-08-10T09:08:00.103Z,1.30
2022-08-10T09:10:37.891Z,1.08
2022-08-10T09:13:42.425Z,1.48
2022-08-10T09:16:47.358Z,1.27
2022-08-10T09:19:36.503Z,1.40
2022-08-10T09:22:24.796Z,1.30
2022-08-10T09:25:08.690Z,1.10
2022-08-10T09:27:53.112Z,1.35
2022-08-10T09:30:32.356Z,1.15
2022-08-10T09:36:25.556Z,1.02
2022-08-10T09:36:29.081Z,1.50
2022-08-10T09:39:07.353Z,1.30
2022-08-10T09:41:56.220Z,1.30
2022-08-10T09:44:57.966Z,0.98
2022-08-10T09:48:00.789Z,1.00
2022-08-10T09:50:23.004Z,1.20
2022-08-10T09:53:10.987Z,1.00
2022-08-10T09:56:17.304Z,0.98
2022-08-10T09:59:59.344Z,1.15
2022-08-10T10:02:20.920Z,1.10
2022-08-10T10:04:58.770Z,1.10
2022-08-10T10:07:29.592Z,1.02
2022-08-10T10:10:10.701Z,0.80
2022-08-10T10:12:52.972Z,0.93
2022-08-10T10:15:35.219Z,1.20
2022-08-10T10:18:07.562Z,1.23
2022-08-10T10:20:52.552Z,0.95
2022-08-10T10:24:21.850Z,1.00
2022-08-10T10:27:16.094Z,0.88
2022-08-10T10:30:05.044Z,1.00
2022-08-10T10:32:36.934Z,1.20
2022-08-10T10:35:15.133Z,0.98
2022-08-10T10:38:10.391Z,0.90
2022-08-10T10:40:35.182Z,1.02
2022-08-10T10:43:21.794Z,1.17
2022-08-10T10:46:23.041Z,1.00
2022-08-10T10:48:59.484Z,1.10
2022-08-10T10:51:33.072Z,1.25
2022-08-10T10:54:08.587Z,0.90
2022-08-10T10:56:53.824Z,1.00
2022-08-10T10:59:55.100Z,0.90
2022-08-10T11:02:50.477Z,0.90
2022-08-10T11:05:41.788Z,1.05
2022-08-10T11:08:19.693Z,0.90
2022-08-10T11:11:01.357Z,1.00
2022-08-10T11:14:25.831Z,0.73
2022-08-10T11:17:00.499Z,0.90
2022-08-10T11:20:02.952Z,1.40
2022-08-10T11:22:58.687Z,1.00
2022-08-10T11:25:36.305Z,1.40
2022-08-10T11:28:20.462Z,1.02
2022-08-10T11:31:04.848Z,1.20
2022-08-10T11:34:11.275Z,1.08
2022-08-10T11:36:55.585Z,0.98
2022-08-10T11:39:50.224Z,1.10
2022-08-10T11:42:28.919Z,0.90
2022-08-10T11:45:04.587Z,1.13
2022-08-10T11:47:53.989Z,1.40
2022-08-10T11:50:39.496Z,1.10
2022-08-10T11:53:23.327Z,1.00
2022-08-10T11:55:55.447Z,1.17
2022-08-10T11:58:42.587Z,1.13
2022-08-10T12:01:11.763Z,1.00
2022-08-10T12:03:41.387Z,1.25
2022-08-10T12:06:13.545Z,0.98
2022-08-10T12:10:11.451Z,1.20
2022-08-10T12:11:34.071Z,1.08
2022-08-10T12:14:23.977Z,1.00
2022-08-10T12:17:16.843Z,0.85
2022-08-10T12:19:59.091Z,1.10
2022-08-10T12:22:57.038Z,1.30
2022-08-10T12:25:56.616Z,0.90
2022-08-10T12:29:02.841Z,0.98
2022-08-10T12:31:41.232Z,1.20
2022-08-10T12:34:26.314Z,1.00
2022-08-10T12:37:11.672Z,0.90
2022-08-10T12:40:17.529Z,1.00
2022-08-10T12:43:13.051Z,0.90
2022-08-10T12:45:51.365Z,1.08
2022-08-10T12:48:41.675Z,1.15
2022-08-10T12:51:18.623Z,1.00
2022-08-10T12:54:09.383Z,1.08
2022-08-10T12:56:42.409Z,0.80
2022-08-10T12:59:14.407Z,1.05
2022-08-10T13:02:09.639Z,1.10
2022-08-10T13:04:33.374Z,1.00
2022-08-10T13:07:01.391Z,0.90
2022-08-10T13:09:29.064Z,0.80
2022-08-10T13:12:38.645Z,0.90
2022-08-10T13:14:53.463Z,1.08
2022-08-10T13:17:42.853Z,1.00
2022-08-10T13:20:20.633Z,1.30
2022-08-10T13:22:49.621Z,0.98
2022-08-10T13:25:22.258Z,1.13
2022-08-10T13:28:02.583Z,1.08
2022-08-10T13:30:38.265Z,1.10
2022-08-10T13:34:40.548Z,0.90
2022-08-10T13:36:14.492Z,1.08
2022-08-10T13:38:43.846Z,0.88
2022-08-10T13:41:11.424Z,0.90
2022-08-10T13:43:50.450Z,1.05
2022-08-10T13:46:22.439Z,0.95
2022-08-10T13:48:53.543Z,1.20
2022-08-10T13:51:54.500Z,1.10
2022-08-10T13:54:16.769Z,1.10
2022-08-10T13:56:46.513Z,1.00
2022-08-10T13:59:16.047Z,0.95
2022-08-10T14:01:49.424Z,0.80
2022-08-10T14:04:29.209Z,1.00
2022-08-10T14:06:59.523Z,0.93
2022-08-10T14:09:32.372Z,1.02
2022-08-10T14:11:59.532Z,1.10
2022-08-10T14:14:28.095Z,0.93
2022-08-10T14:16:55.959Z,1.17
2022-08-10T14:19:26.363Z,1.10
2022-08-10T14:21:54.698Z,0.98
2022-08-10T14:24:26.488Z,0.98
2022-08-10T14:27:11.687Z,1.20
2022-08-10T14:29:42.867Z,0.87
2022-08-10T14:32:11.168Z,0.95
2022-08-10T14:36:15.458Z,1.05
2022-08-10T14:37:38.790Z,0.95
2022-08-10T14:40:11.637Z,1.00
2022-08-10T14:42:49.137Z,1.30
2022-08-10T14:45:24.702Z,1.10
2022-08-10T14:48:03.650Z,1.17
2022-08-10T14:50:33.710Z,1.25
2022-08-10T14:53:16.180Z,1.15
2022-08-10T14:55:59.395Z,1.33
2022-08-10T14:58:59.049Z,1.10
2022-08-10T15:02:00.265Z,0.90
2022-08-10T15:04:24.718Z,1.20
2022-08-10T15:07:01.290Z,1.02
2022-08-10T15:10:00.634Z,1.00
2022-08-10T15:12:25.021Z,1.00
2022-08-10T15:14:58.484Z,1.05
2022-08-10T15:17:30.284Z,1.25
2022-08-10T15:20:14.105Z,0.85
2022-08-10T15:22:47.269Z,1.30
2022-08-10T15:25:24.695Z,1.20
2022-08-10T15:28:11.240Z,1.00
2022-08-10T15:30:43.809Z,1.13
2022-08-10T15:34:02.982Z,1.17
2022-08-10T15:36:43.170Z,1.13
2022-08-10T15:40:21.920Z,1.17
2022-08-10T15:42:08.411Z,1.02
2022-08-10T15:44:40.109Z,1.50
2022-08-10T15:47:15.265Z,1.23
2022-08-10T15:49:51.860Z,1.23
2022-08-10T15:52:39.183Z,1.05
2022-08-10T15:55:44.248Z,1.13
2022-08-10T15:58:12.941Z,1.10
2022-08-10T16:01:02.147Z,1.13
2022-08-10T16:03:42.520Z,1.23
2022-08-10T16:06:13.325Z,1.48
2022-08-10T16:08:56.178Z,1.10
2022-08-10T16:11:46.674Z,1.13
2022-08-10T16:14:21.257Z,1.05
2022-08-10T16:16:56.503Z,1.20
2022-08-10T16:19:26.720Z,1.15
2022-08-10T16:21:56.904Z,1.20
2022-08-10T16:24:24.821Z,1.15
2022-08-10T16:26:54.503Z,1.10
2022-08-10T16:29:27.401Z,1.10
2022-08-10T16:32:01.690Z,1.00
2022-08-10T16:34:41.444Z,0.90
2022-08-10T16:37:12.931Z,1.30
2022-08-10T16:39:57.732Z,1.10
2022-08-10T16:42:36.403Z,1.20
2022-08-10T16:45:07.715Z,1.10
2022-08-10T16:47:44.901Z,1.20
2022-08-10T16:50:14.276Z,1.20
2022-08-10T16:52:43.530Z,1.10
2022-08-10T16:55:17.208Z,1.10
2022-08-10T16:57:54.147Z,1.00
2022-08-10T17:00:22.707Z,1.02
2022-08-10T17:02:52.566Z,1.08
2022-08-10T17:06:09.878Z,1.20
2022-08-10T17:08:16.021Z,1.02
2022-08-10T17:10:43.644Z,0.98
2022-08-10T17:13:13.718Z,0.80
2022-08-10T17:15:56.002Z,0.90
2022-08-10T17:18:28.054Z,0.90
2022-08-10T17:21:06.213Z,0.90
2022-08-10T17:23:35.206Z,0.93
2022-08-10T17:26:08.560Z,1.00
2022-08-10T17:28:41.702Z,1.10
2022-08-10T17:31:54.429Z,0.80
2022-08-10T17:34:23.515Z,0.70
2022-08-10T17:36:57.012Z,1.10
2022-08-10T17:39:30.732Z,0.90
2022-08-10T17:42:01.244Z,1.05
2022-08-10T17:44:29.103Z,1.33
2022-08-10T17:46:56.039Z,1.10
2022-08-10T17:49:24.753Z,1.30
2022-08-10T17:51:54.015Z,1.00
2022-08-10T17:54:31.123Z,1.20
2022-08-10T17:57:01.582Z,1.00
2022-08-10T17:59:30.796Z,1.20
2022-08-10T18:02:12.553Z,1.20
2022-08-10T18:04:45.809Z,1.38
2022-08-10T18:07:13.673Z,1.00
2022-08-10T18:09:49.865Z,1.10
2022-08-10T18:12:29.125Z,1.10
2022-08-10T18:15:02.137Z,1.20
2022-08-10T18:17:39.481Z,1.00
2022-08-10T18:20:08.529Z,1.30
2022-08-10T18:22:42.810Z,1.10
2022-08-10T18:25:17.235Z,1.40
2022-08-10T18:28:01.523Z,1.02
2022-08-10T18:30:35.978Z,1.13
2022-08-10T18:33:09.120Z,1.10
2022-08-10T18:35:36.576Z,1.50
2022-08-10T18:38:04.780Z,1.23
2022-08-10T18:40:36.401Z,1.40
2022-08-10T18:44:04.709Z,1.08
2022-08-10T18:45:56.789Z,1.13
2022-08-10T18:48:33.087Z,1.30
2022-08-10T18:51:06.071Z,1.30
2022-08-10T18:53:47.911Z,1.30
2022-08-10T18:56:20.284Z,1.15
2022-08-10T18:59:08.639Z,1.20
2022-08-10T19:01:41.225Z,1.60
2022-08-10T19:04:20.037Z,1.10
2022-08-10T19:06:46.446Z,1.17
2022-08-10T19:09:47.042Z,1.23
2022-08-10T19:12:36.438Z,1.38
2022-08-10T19:15:10.058Z,1.13
2022-08-10T19:18:06.017Z,1.33
2022-08-10T19:20:55.741Z,1.38
2022-08-10T19:23:30.588Z,1.52
2022-08-10T19:26:44.106Z,1.50
2022-08-10T19:30:08.004Z,1.45
2022-08-10T19:32:10.993Z,1.40
2022-08-10T19:34:37.436Z,1.77
2022-08-10T19:37:15.721Z,1.40
2022-08-10T19:40:12.182Z,1.42
2022-08-10T19:42:49.582Z,1.20
2022-08-10T19:45:55.985Z,1.33
2022-08-10T19:48:29.859Z,1.05
2022-08-10T19:51:04.351Z,1.40
2022-08-10T19:53:50.971Z,1.33
2022-08-10T19:56:34.110Z,1.50
2022-08-10T19:59:07.371Z,1.42
2022-08-10T20:01:54.426Z,1.40
2022-08-10T20:04:41.291Z,1.40
2022-08-10T20:07:19.803Z,1.55
2022-08-10T20:10:00.469Z,1.50
2022-08-10T20:12:42.786Z,1.50
2022-08-10T20:15:42.204Z,1.67
2022-08-10T20:18:33.173Z,1.42
2022-08-10T20:21:08.143Z,1.20
2022-08-10T20:23:35.839Z,1.40
2022-08-10T20:26:14.854Z,1.38
2022-08-10T20:29:00.677Z,1.58
2022-08-10T20:31:37.886Z,1.75
2022-08-10T20:34:13.326Z,1.40
2022-08-10T20:37:05.539Z,1.80
2022-08-10T20:40:08.439Z,1.25
2022-08-10T20:43:02.770Z,1.50
2022-08-10T20:46:05.122Z,1.30
2022-08-10T20:48:40.453Z,1.20
2022-08-10T20:51:15.509Z,1.23
2022-08-10T20:53:48.815Z,1.40
2022-08-10T20:56:33.492Z,1.23
2022-08-10T20:59:37.293Z,1.17
2022-08-10T21:02:46.504Z,1.33
2022-08-10T21:05:15.330Z,1.10
2022-08-10T21:08:02.075Z,1.40
2022-08-10T21:10:48.628Z,1.40
2022-08-10T21:13:41.520Z,1.52
2022-08-10T21:16:10.733Z,1.33
2022-08-10T21:19:24.452Z,2.05
2022-08-10T21:22:08.326Z,1.35
2022-08-10T21:24:42.816Z,1.55
2022-08-10T21:27:42.353Z,1.77
2022-08-10T21:30:20.095Z,1.90
2022-08-10T21:33:15.959Z,1.70
2022-08-10T21:35:46.488Z,1.58
2022-08-10T21:38:43.720Z,1.58
2022-08-10T21:41:57.902Z,1.73
2022-08-10T21:45:08.021Z,1.50
2022-08-10T21:48:30.095Z,1.45
2022-08-10T21:51:24.739Z,1.70
2022-08-10T22:00:38.064Z,1.45
2022-08-10T22:03:23.996Z,1.53
2022-08-10T22:06:13.074Z,2.00
2022-08-10T22:09:04.080Z,1.55
2022-08-10T22:11:55.139Z,1.50
2022-08-10T22:14:52.667Z,1.58
2022-08-10T22:18:04.477Z,1.45
2022-08-10T22:20:49.665Z,1.70
2022-08-10T22:23:51.757Z,1.83
2022-08-10T22:26:39.942Z,1.65
2022-08-10T22:29:54.099Z,1.90
2022-08-10T22:31:25.595Z,1.50
2022-08-10T22:33:24.224Z,1.30
2022-08-10T22:36:34.405Z,1.80
2022-08-10T22:40:10.945Z,1.55
2022-08-10T22:43:10.892Z,1.50
2022-08-10T22:46:07.208Z,1.45
2022-08-10T22:49:00.519Z,1.70
2022-08-10T22:51:33.264Z,1.30
2022-08-10T22:54:32.737Z,1.88
2022-08-10T22:57:19.728Z,1.65
2022-08-10T22:59:47.261Z,1.65
2022-08-10T23:02:29.483Z,1.50
2022-08-10T23:05:02.047Z,1.40
2022-08-10T23:07:31.953Z,1.52
2022-08-10T23:10:10.885Z,1.50
2022-08-10T23:12:59.283Z,1.65
2022-08-10T23:15:49.140Z,1.42
2022-08-10T23:18:46.018Z,1.77
2022-08-10T23:23:42.210Z,1.80
2022-08-10T23:26:11.581Z,1.60
2022-08-10T23:29:04.227Z,1.58
2022-08-10T23:32:01.015Z,1.70
2022-08-10T23:34:19.718Z,1.98
2022-08-10T23:36:49.753Z,1.60
2022-08-10T23:39:24.384Z,1.38
2022-08-10T23:42:03.031Z,1.48
2022-08-10T23:44:35.888Z,1.55
2022-08-10T23:47:04.869Z,1.25
2022-08-10T23:49:37.184Z,1.50
2022-08-10T23:52:12.722Z,1.27
2022-08-10T23:54:46.047Z,1.50
2022-08-10T23:57:17.506Z,1.40
